createdAt,value
2023-02-05T04:32:02.081Z,95.10
2023-02-05T04:42:38.067Z,99.90
2023-02-05T04:53:14.124Z,99.90
2023-02-05T05:03:50.610Z,99.90
2023-02-05T05:14:26.413Z,99.90
2023-02-05T05:25:01.880Z,99.80
2023-02-05T05:35:37.849Z,99.90
2023-02-05T05:46:21.974Z,96.60
2023-02-05T05:56:57.934Z,93.80
2023-02-05T06:07:33.265Z,98.10
2023-02-05T06:18:09.065Z,99.90
2023-02-05T06:28:44.731Z,99.20
2023-02-05T06:39:20.515Z,99.90
2023-02-05T06:49:56.330Z,99.90
2023-02-05T07:00:32.632Z,99.90
2023-02-05T07:11:08.154Z,99.90
2023-02-05T07:21:44.966Z,99.90
2023-02-05T07:32:20.577Z,99.90
2023-02-05T07:42:56.273Z,99.90
2023-02-05T07:53:32.378Z,99.90
2023-02-05T08:04:08.202Z,99.40
2023-02-05T08:14:44.035Z,99.90
2023-02-05T08:25:19.652Z,99.90
2023-02-05T08:35:57.254Z,99.90
2023-02-05T08:46:47.605Z,99.90
2023-02-05T08:57:29.910Z,99.90
2023-02-05T09:08:05.665Z,99.90
2023-02-05T09:18:41.098Z,99.90
2023-02-05T09:29:16.806Z,99.90
2023-02-05T09:40:19.427Z,99.90
2023-02-05T09:50:48.460Z,99.90
2023-02-05T10:01:39.362Z,99.90
2023-02-05T10:12:52.275Z,99.90
2023-02-05T10:24:05.945Z,99.90
2023-02-05T10:34:59.357Z,99.90
2023-02-05T10:45:35.246Z,99.90
2023-02-05T10:56:18.973Z,99.90
2023-02-05T11:06:54.730Z,99.90
2023-02-05T11:17:36.877Z,99.90
2023-02-05T11:28:24.433Z,99.90
2023-02-05T11:39:00.435Z,99.90
2023-02-05T11:49:39.059Z,99.90
2023-02-05T12:00:24.237Z,99.90
2023-02-05T12:11:17.280Z,99.90
2023-02-05T12:22:16.020Z,99.90
2023-02-05T12:33:16.850Z,99.90
2023-02-05T12:44:02.840Z,99.90
2023-02-05T12:55:05.940Z,99.90
2023-02-05T13:05:52.408Z,99.90
2023-02-05T13:16:54.346Z,99.90
2023-02-05T13:27:53.119Z,99.90
2023-02-05T13:39:06.235Z,99.90
2023-02-05T13:50:09.518Z,99.90
2023-02-05T14:00:50.223Z,89.10
2023-02-05T14:11:26.293Z,93.00
2023-02-05T14:22:07.293Z,92.80
2023-02-05T14:32:43.425Z,91.70
2023-02-05T14:43:34.801Z,96.90
2023-02-05T14:54:20.409Z,99.90
2023-02-05T15:04:58.466Z,99.90
2023-02-05T15:15:36.994Z,99.90
2023-02-05T15:26:30.262Z,99.90
2023-02-05T15:37:18.219Z,99.90
2023-02-05T15:48:11.863Z,99.90
2023-02-05T15:58:57.342Z,99.90
2023-02-05T16:09:35.249Z,99.90
2023-02-05T16:20:39.579Z,99.90
2023-02-05T16:31:25.559Z,99.90
2023-02-05T16:42:17.035Z,99.90
2023-02-05T16:52:57.694Z,99.90
2023-02-05T17:03:40.038Z,99.90
2023-02-05T17:14:28.404Z,99.90
2023-02-05T17:25:05.708Z,99.90
2023-02-05T17:35:41.172Z,99.90
2023-02-05T17:46:17.272Z,99.90
2023-02-05T17:56:55.321Z,99.90
2023-02-05T18:07:39.958Z,99.90
2023-02-05T18:18:15.928Z,99.90
2023-02-05T18:28:51.748Z,99.90
2023-02-05T18:39:29.346Z,99.90
2023-02-05T18:50:05.693Z,99.90
2023-02-05T19:00:41.537Z,99.90
2023-02-05T19:11:24.024Z,99.90
2023-02-05T19:22:01.752Z,99.90
2023-02-05T19:32:37.869Z,99.90
2023-02-05T19:43:17.562Z,99.90
2023-02-05T19:53:56.575Z,99.90
2023-02-05T20:04:31.910Z,99.90
2023-02-05T20:15:08.593Z,99.90
2023-02-05T20:25:51.558Z,99.90
2023-02-05T20:36:27.410Z,99.90
2023-02-05T20:47:04.780Z,99.90
2023-02-05T20:57:41.310Z,99.90
2023-02-05T21:08:17.002Z,95.40
2023-02-05T21:18:53.264Z,96.90
2023-02-05T21:29:28.723Z,96.50
2023-02-05T21:40:09.566Z,90.30
2023-02-05T21:50:45.763Z,90.20
2023-02-05T22:01:24.500Z,91.50
2023-02-05T22:12:03.819Z,90.60
2023-02-05T22:22:39.321Z,92.30
